createdAt,value
2018-04-08T00:00:53.865Z,0.00
2018-04-08T00:01:53.521Z,0.00
2018-04-08T00:02:53.484Z,0.00
2018-04-08T00:03:53.447Z,0.00
2018-04-08T00:04:53.400Z,0.00
2018-04-08T00:05:53.378Z,0.00
2018-04-08T00:06:53.616Z,0.00
2018-04-08T00:07:53.285Z,0.00
2018-04-08T00:08:53.280Z,0.00
2018-04-08T00:09:53.207Z,0.00
2018-04-08T00:10:53.160Z,0.00
2018-04-08T00:11:53.118Z,0.00
2018-04-08T00:12:53.377Z,0.00
2018-04-08T00:13:53.035Z,0.00
2018-04-08T00:14:52.996Z,0.00
2018-04-08T00:15:52.941Z,0.00
2018-04-08T00:16:52.908Z,0.00
2018-04-08T00:17:52.859Z,0.00
2018-04-08T00:18:52.819Z,0.00
2018-04-08T00:19:53.076Z,0.00
2018-04-08T00:20:52.740Z,0.00
2018-04-08T00:21:52.695Z,0.00
2018-04-08T00:22:52.652Z,0.00
2018-04-08T00:23:52.625Z,0.00
2018-04-08T00:24:52.578Z,0.00
2018-04-08T00:25:52.539Z,0.00
2018-04-08T00:26:52.794Z,0.00
2018-04-08T00:27:52.453Z,0.00
2018-04-08T00:28:52.411Z,0.00
2018-04-08T00:29:52.368Z,0.00
2018-04-08T00:30:52.327Z,0.00
2018-04-08T00:31:52.286Z,0.00
2018-04-08T00:32:52.246Z,0.00
2018-04-08T00:33:52.502Z,0.00
2018-04-08T00:34:52.160Z,0.00
2018-04-08T00:35:52.129Z,0.00
2018-04-08T00:36:52.079Z,0.00
2018-04-08T00:37:52.037Z,0.00
2018-04-08T00:38:51.996Z,0.00
2018-04-08T00:39:51.943Z,0.00
2018-04-08T00:40:52.199Z,0.00
2018-04-08T00:41:51.857Z,0.00
2018-04-08T00:42:51.816Z,0.00
2018-04-08T00:43:51.776Z,0.00
2018-04-08T00:44:51.732Z,0.00
2018-04-08T00:45:51.691Z,0.00
2018-04-08T00:46:51.649Z,0.00
2018-04-08T00:47:52.069Z,0.00
2018-04-08T00:48:51.589Z,0.00
2018-04-08T00:49:51.536Z,0.00
2018-04-08T00:50:51.494Z,0.00
2018-04-08T00:51:51.452Z,0.00
2018-04-08T00:52:51.411Z,0.00
2018-04-08T00:53:51.370Z,0.00
2018-04-08T00:54:51.625Z,0.00
2018-04-08T00:55:51.275Z,0.00
2018-04-08T00:56:51.231Z,0.00
2018-04-08T00:57:51.189Z,0.00
2018-04-08T00:58:51.147Z,0.00
2018-04-08T00:59:51.106Z,0.00
2018-04-08T01:00:51.368Z,0.00
2018-04-08T01:01:51.023Z,0.00
2018-04-08T01:02:50.983Z,0.00
2018-04-08T01:03:50.938Z,0.00
2018-04-08T01:04:50.899Z,0.00
2018-04-08T01:05:50.860Z,0.00
2018-04-08T01:06:51.115Z,0.00
2018-04-08T01:07:50.772Z,0.00
2018-04-08T01:08:50.734Z,0.00
2018-04-08T01:09:50.692Z,0.00
2018-04-08T01:10:50.653Z,0.00
2018-04-08T01:11:50.619Z,0.00
2018-04-08T01:12:50.875Z,0.00
2018-04-08T01:13:50.538Z,0.00
2018-04-08T01:14:50.492Z,0.00
2018-04-08T01:15:50.447Z,0.00
2018-04-08T01:16:50.405Z,0.00
2018-04-08T01:17:50.366Z,0.00
2018-04-08T01:18:50.629Z,0.00
2018-04-08T01:19:50.276Z,0.00
2018-04-08T01:20:50.228Z,0.00
2018-04-08T01:21:50.186Z,0.00
2018-04-08T01:22:50.148Z,0.00
2018-04-08T01:23:50.103Z,0.00
2018-04-08T01:24:50.365Z,0.00
2018-04-08T01:25:50.022Z,0.00
2018-04-08T01:26:49.977Z,0.00
2018-04-08T01:27:49.945Z,0.00
2018-04-08T01:28:49.902Z,0.00
2018-04-08T01:29:49.862Z,0.00
2018-04-08T01:30:49.819Z,0.00
2018-04-08T01:31:50.084Z,0.00
2018-04-08T01:32:49.735Z,0.00
2018-04-08T01:33:49.699Z,0.00
2018-04-08T01:34:49.651Z,0.00
2018-04-08T01:35:49.613Z,0.00
2018-04-08T01:36:49.576Z,0.00
2018-04-08T01:37:49.525Z,0.00
2018-04-08T01:38:49.785Z,0.00
2018-04-08T01:39:49.444Z,0.00
2018-04-08T01:40:49.403Z,0.00
2018-04-08T01:41:49.361Z,0.00
2018-04-08T01:42:49.319Z,0.00
2018-04-08T01:43:49.265Z,0.00
2018-04-08T01:44:49.226Z,0.00
2018-04-08T01:45:49.482Z,0.00
2018-04-08T01:46:49.137Z,0.00
2018-04-08T01:47:49.097Z,0.00
2018-04-08T01:48:49.055Z,0.00
2018-04-08T01:49:49.011Z,0.00
2018-04-08T01:50:48.973Z,0.00
2018-04-08T01:51:48.938Z,0.00
2018-04-08T01:52:49.202Z,0.00
2018-04-08T01:53:48.858Z,0.00
2018-04-08T01:54:48.826Z,0.00
2018-04-08T01:55:48.775Z,0.00
2018-04-08T01:56:48.732Z,0.00
2018-04-08T01:57:48.686Z,0.00
2018-04-08T01:58:48.655Z,0.00
2018-04-08T01:59:48.892Z,0.00
2018-04-08T02:00:48.552Z,0.00
2018-04-08T02:01:48.509Z,0.00
2018-04-08T02:02:48.466Z,0.00
2018-04-08T02:03:48.425Z,0.00
2018-04-08T02:04:48.386Z,0.00
2018-04-08T02:05:48.344Z,0.00
2018-04-08T02:06:48.605Z,0.00
2018-04-08T02:07:48.259Z,0.00
2018-04-08T02:08:48.214Z,0.00
2018-04-08T02:09:48.171Z,0.00
2018-04-08T02:10:48.130Z,0.00
2018-04-08T02:11:48.088Z,0.00
2018-04-08T02:12:48.344Z,0.00
2018-04-08T02:13:48.004Z,0.00
2018-04-08T02:14:47.961Z,0.00
2018-04-08T02:15:47.930Z,0.00
2018-04-08T02:16:47.886Z,0.00
2018-04-08T02:17:47.848Z,0.00
2018-04-08T02:18:48.106Z,0.00
2018-04-08T02:19:47.761Z,0.00
2018-04-08T02:20:47.718Z,0.00
2018-04-08T02:21:47.687Z,0.00
2018-04-08T02:22:47.634Z,0.00
2018-04-08T02:23:47.581Z,0.00
2018-04-08T02:24:47.842Z,0.00
2018-04-08T02:25:47.500Z,0.00
2018-04-08T02:26:47.455Z,0.00
2018-04-08T02:27:47.412Z,0.00
2018-04-08T02:28:47.380Z,0.00
2018-04-08T02:29:47.330Z,0.00
2018-04-08T02:30:47.588Z,0.00
2018-04-08T02:31:47.256Z,0.00
2018-04-08T02:32:47.213Z,0.00
2018-04-08T02:33:47.171Z,0.00
2018-04-08T02:34:47.130Z,0.00
2018-04-08T02:35:47.089Z,0.00
2018-04-08T02:36:47.343Z,0.00
2018-04-08T02:37:47.004Z,0.00
2018-04-08T02:38:46.964Z,0.00
2018-04-08T02:39:46.920Z,0.00
2018-04-08T02:40:46.875Z,0.00
2018-04-08T02:41:46.834Z,0.00
2018-04-08T02:42:46.789Z,0.00
2018-04-08T02:43:47.049Z,0.00
2018-04-08T02:44:46.705Z,0.00
2018-04-08T02:45:46.667Z,0.00
2018-04-08T02:46:46.626Z,0.00
2018-04-08T02:47:46.573Z,0.00
2018-04-08T02:48:46.541Z,0.00
2018-04-08T02:49:46.486Z,0.00
2018-04-08T02:50:46.758Z,0.00
2018-04-08T02:51:46.401Z,0.00
2018-04-08T02:52:46.359Z,0.00
2018-04-08T02:53:46.321Z,0.00
2018-04-08T02:54:46.275Z,0.00
2018-04-08T02:55:46.243Z,0.00
2018-04-08T02:56:46.200Z,0.00
2018-04-08T02:57:46.458Z,0.00
2018-04-08T02:58:46.116Z,0.00
2018-04-08T02:59:46.074Z,0.00
2018-04-08T03:00:46.082Z,0.00
2018-04-08T03:01:45.992Z,0.00
2018-04-08T03:02:45.947Z,0.00
2018-04-08T03:03:45.909Z,0.00
2018-04-08T03:04:46.151Z,0.00
2018-04-08T03:05:45.811Z,0.00
2018-04-08T03:06:45.769Z,0.00
2018-04-08T03:07:45.736Z,0.00
2018-04-08T03:08:45.682Z,0.00
2018-04-08T03:09:45.648Z,0.00
2018-04-08T03:10:45.601Z,0.00
2018-04-08T03:11:45.857Z,0.00
2018-04-08T03:12:45.515Z,0.00
2018-04-08T03:13:45.475Z,0.00
2018-04-08T03:14:45.432Z,0.00
2018-04-08T03:15:45.395Z,0.00
2018-04-08T03:16:45.347Z,0.00
2018-04-08T03:17:45.308Z,0.00
2018-04-08T03:18:45.564Z,0.00
2018-04-08T03:19:45.230Z,0.00
2018-04-08T03:20:45.240Z,0.00
2018-04-08T03:21:45.147Z,0.00
2018-04-08T03:22:45.103Z,0.00
2018-04-08T03:23:45.062Z,0.00
2018-04-08T03:24:45.319Z,0.00
2018-04-08T03:25:44.977Z,0.00
2018-04-08T03:26:44.936Z,0.00
2018-04-08T03:27:44.890Z,0.00
2018-04-08T03:28:44.840Z,0.00
2018-04-08T03:29:44.797Z,0.00
2018-04-08T03:30:45.061Z,0.00
2018-04-08T03:31:44.715Z,0.00
2018-04-08T03:32:44.671Z,0.00
2018-04-08T03:33:44.630Z,0.00
2018-04-08T03:34:44.592Z,0.00
2018-04-08T03:35:44.556Z,0.00
2018-04-08T03:36:44.814Z,0.00
2018-04-08T03:37:44.474Z,0.00
2018-04-08T03:38:44.430Z,0.00
2018-04-08T03:39:44.436Z,0.00
2018-04-08T03:40:44.346Z,0.00
2018-04-08T03:41:44.307Z,0.00
2018-04-08T03:42:44.563Z,0.00
2018-04-08T03:43:44.219Z,0.00
2018-04-08T03:44:44.178Z,0.00
2018-04-08T03:45:44.134Z,0.00
2018-04-08T03:46:44.094Z,0.00
2018-04-08T03:47:44.051Z,0.00
2018-04-08T03:48:44.362Z,0.00
2018-04-08T03:49:43.974Z,0.00
2018-04-08T03:50:43.927Z,0.00
2018-04-08T03:51:43.874Z,0.00
2018-04-08T03:52:43.832Z,0.00
2018-04-08T03:53:43.788Z,0.00
2018-04-08T03:54:43.752Z,0.00
2018-04-08T03:55:44.005Z,0.00
2018-04-08T03:56:43.662Z,0.00
2018-04-08T03:57:43.620Z,0.00
2018-04-08T03:58:43.581Z,0.00
2018-04-08T03:59:43.547Z,0.00
2018-04-08T04:00:43.503Z,0.00
2018-04-08T04:01:43.472Z,0.00
2018-04-08T04:02:43.719Z,0.00
2018-04-08T04:03:43.384Z,0.00
2018-04-08T04:04:43.345Z,0.00
2018-04-08T04:05:43.295Z,0.00
2018-04-08T04:06:43.252Z,0.00
2018-04-08T04:07:43.204Z,0.00
2018-04-08T04:08:43.156Z,0.00
2018-04-08T04:09:43.414Z,0.00
2018-04-08T04:10:43.072Z,0.00
2018-04-08T04:11:43.030Z,0.00
2018-04-08T04:12:42.989Z,0.00
2018-04-08T04:13:42.949Z,0.00
2018-04-08T04:14:42.906Z,0.00
2018-04-08T04:15:42.865Z,0.00
2018-04-08T04:16:43.119Z,0.00
2018-04-08T04:17:42.789Z,0.00
2018-04-08T04:18:42.736Z,0.00
2018-04-08T04:19:42.745Z,0.00
2018-04-08T04:20:42.657Z,0.00
2018-04-08T04:21:42.611Z,0.00
2018-04-08T04:22:42.568Z,0.00
2018-04-08T04:23:42.840Z,0.00
2018-04-08T04:24:42.492Z,0.00
2018-04-08T04:25:42.453Z,0.00
2018-04-08T04:26:42.413Z,0.00
2018-04-08T04:27:42.371Z,0.00
2018-04-08T04:28:42.325Z,0.00
2018-04-08T04:29:42.284Z,0.00
2018-04-08T04:30:42.546Z,0.00
2018-04-08T04:31:42.198Z,0.00
2018-04-08T04:32:42.157Z,0.00
2018-04-08T04:33:42.115Z,0.00
2018-04-08T04:34:42.071Z,5.63
2018-04-08T04:35:42.028Z,5.63
2018-04-08T04:36:42.286Z,5.63
2018-04-08T04:37:41.989Z,5.63
2018-04-08T04:38:41.902Z,5.63
2018-04-08T04:39:41.850Z,5.63
2018-04-08T04:40:41.807Z,11.25
2018-04-08T04:41:41.865Z,11.25
2018-04-08T04:42:42.029Z,11.25
2018-04-08T04:43:41.779Z,11.25
2018-04-08T04:44:41.641Z,16.88
2018-04-08T04:45:41.660Z,16.88
2018-04-08T04:46:41.554Z,16.88
2018-04-08T04:47:41.517Z,22.50
2018-04-08T04:48:41.770Z,22.50
2018-04-08T04:49:41.442Z,28.13
2018-04-08T04:50:41.388Z,28.13
2018-04-08T04:51:41.349Z,28.13
2018-04-08T04:52:41.300Z,33.75
2018-04-08T04:53:41.257Z,33.75
2018-04-08T04:54:41.519Z,39.38
2018-04-08T04:55:41.183Z,45.00
2018-04-08T04:56:41.140Z,45.00
2018-04-08T04:57:41.098Z,50.63
2018-04-08T04:58:41.064Z,56.25
2018-04-08T04:59:41.014Z,56.25
2018-04-08T05:00:41.272Z,61.88
2018-04-08T05:01:40.930Z,67.50
2018-04-08T05:02:40.888Z,73.13
2018-04-08T05:03:40.838Z,78.75
2018-04-08T05:04:40.793Z,78.75
2018-04-08T05:05:40.994Z,84.38
2018-04-08T05:06:40.728Z,90.00
2018-04-08T05:07:40.968Z,95.63
2018-04-08T05:08:40.626Z,95.63
2018-04-08T05:09:40.584Z,101.25
2018-04-08T05:10:40.542Z,106.88
2018-04-08T05:11:40.516Z,112.50
2018-04-08T05:12:40.473Z,112.50
2018-04-08T05:13:40.424Z,118.13
2018-04-08T05:14:40.683Z,123.75
2018-04-08T05:15:40.342Z,123.75
2018-04-08T05:16:40.299Z,129.38
2018-04-08T05:17:40.263Z,129.38
2018-04-08T05:18:40.214Z,135.00
2018-04-08T05:19:40.184Z,140.63
2018-04-08T05:20:41.573Z,135.00
2018-04-08T05:21:41.691Z,140.63
2018-04-08T05:22:40.501Z,140.63
2018-04-08T05:23:40.465Z,146.25
2018-04-08T05:24:40.471Z,151.88
2018-04-08T05:25:40.750Z,157.50
2018-04-08T05:26:41.054Z,163.13
2018-04-08T05:27:40.289Z,168.75
2018-04-08T05:28:41.639Z,168.75
2018-04-08T05:29:40.114Z,174.38
2018-04-08T05:30:39.845Z,185.63
2018-04-08T05:31:39.823Z,191.25
2018-04-08T05:32:39.883Z,196.88
2018-04-08T05:33:40.088Z,202.50
2018-04-08T05:34:40.728Z,213.75
2018-04-08T05:35:39.935Z,219.38
2018-04-08T05:36:39.514Z,225.00
2018-04-08T05:37:39.430Z,230.63
2018-04-08T05:38:39.436Z,241.88
2018-04-08T05:39:39.342Z,247.50
2018-04-08T05:40:39.300Z,253.13
2018-04-08T05:41:39.307Z,258.75
2018-04-08T05:42:39.516Z,264.38
2018-04-08T05:43:39.167Z,270.00
2018-04-08T05:44:39.127Z,281.25
2018-04-08T05:45:39.093Z,281.25
2018-04-08T05:46:39.040Z,298.13
2018-04-08T05:47:38.999Z,298.13
2018-04-08T05:48:39.267Z,309.38
2018-04-08T05:49:38.922Z,320.63
2018-04-08T05:50:38.876Z,337.50
2018-04-08T05:51:38.835Z,348.75
2018-04-08T05:52:38.792Z,354.38
2018-04-08T05:53:38.750Z,365.63
2018-04-08T05:54:39.012Z,376.88
2018-04-08T05:55:38.670Z,382.50
2018-04-08T05:56:38.638Z,388.13
2018-04-08T05:57:38.588Z,393.75
2018-04-08T05:58:38.548Z,399.38
2018-04-08T05:59:38.569Z,399.38
2018-04-08T06:00:38.776Z,399.38
2018-04-08T06:01:38.434Z,399.38
2018-04-08T06:02:38.398Z,399.38
2018-04-08T06:03:38.354Z,405.00
2018-04-08T06:04:38.313Z,410.63
2018-04-08T06:05:38.272Z,416.25
2018-04-08T06:06:38.532Z,427.50
2018-04-08T06:07:38.199Z,444.38
2018-04-08T06:08:38.142Z,483.75
2018-04-08T06:09:38.101Z,506.25
2018-04-08T06:10:38.123Z,506.25
2018-04-08T06:11:38.023Z,562.50
2018-04-08T06:12:38.288Z,635.63
2018-04-08T06:13:37.940Z,669.38
2018-04-08T06:14:37.904Z,641.25
2018-04-08T06:15:37.871Z,770.63
2018-04-08T06:16:37.829Z,573.75
2018-04-08T06:17:37.806Z,556.88
2018-04-08T06:18:37.752Z,596.25
2018-04-08T06:19:38.011Z,601.88
2018-04-08T06:20:37.672Z,815.63
2018-04-08T06:21:37.632Z,765.00
2018-04-08T06:22:37.592Z,1192.50
2018-04-08T06:23:37.552Z,1231.88
2018-04-08T06:24:37.512Z,1254.38
2018-04-08T06:25:37.474Z,1130.63
2018-04-08T06:26:37.735Z,1305.00
2018-04-08T06:27:37.398Z,1276.88
2018-04-08T06:28:37.358Z,1316.25
2018-04-08T06:29:37.467Z,905.63
2018-04-08T06:30:37.279Z,1316.25
2018-04-08T06:31:37.231Z,1231.88
2018-04-08T06:32:37.196Z,894.38
2018-04-08T06:33:37.470Z,1170.00
2018-04-08T06:34:37.117Z,1389.38
2018-04-08T06:35:37.334Z,1338.75
2018-04-08T06:36:37.337Z,1237.50
2018-04-08T06:37:37.055Z,843.75
2018-04-08T06:38:36.968Z,855.00
2018-04-08T06:39:36.945Z,860.63
2018-04-08T06:40:37.202Z,1068.75
2018-04-08T06:41:36.867Z,1063.13
2018-04-08T06:42:36.830Z,804.38
2018-04-08T06:43:36.846Z,787.50
2018-04-08T06:44:36.754Z,860.63
2018-04-08T06:45:36.723Z,855.00
2018-04-08T06:46:36.683Z,770.63
2018-04-08T06:47:36.941Z,765.00
2018-04-08T06:48:36.597Z,770.63
2018-04-08T06:49:36.561Z,1113.75
2018-04-08T06:50:36.526Z,883.13
2018-04-08T06:51:36.578Z,1192.50
2018-04-08T06:52:36.450Z,821.25
2018-04-08T06:53:36.419Z,804.38
2018-04-08T06:54:36.676Z,922.50
2018-04-08T06:55:36.344Z,877.50
2018-04-08T06:56:36.303Z,1681.88
2018-04-08T06:57:36.265Z,883.13
2018-04-08T06:58:36.241Z,843.75
2018-04-08T06:59:36.192Z,798.75
2018-04-08T07:00:36.469Z,781.88
2018-04-08T07:01:36.423Z,770.63
2018-04-08T07:02:36.397Z,832.50
2018-04-08T07:03:36.065Z,776.25
2018-04-08T07:04:36.025Z,770.63
2018-04-08T07:05:35.985Z,776.25
2018-04-08T07:06:36.245Z,770.63
2018-04-08T07:07:35.908Z,770.63
2018-04-08T07:08:35.874Z,765.00
2018-04-08T07:09:35.834Z,793.13
2018-04-08T07:10:35.800Z,1035.00
2018-04-08T07:11:35.752Z,765.00
2018-04-08T07:12:36.017Z,748.13
2018-04-08T07:13:35.679Z,748.13
2018-04-08T07:14:35.640Z,748.13
2018-04-08T07:15:35.604Z,753.75
2018-04-08T07:16:35.572Z,759.38
2018-04-08T07:17:35.531Z,776.25
2018-04-08T07:18:35.849Z,911.25
2018-04-08T07:19:35.466Z,765.00
2018-04-08T07:20:35.481Z,753.75
2018-04-08T07:21:35.394Z,753.75
2018-04-08T07:22:35.405Z,753.75
2018-04-08T07:23:35.318Z,759.38
2018-04-08T07:24:35.585Z,759.38
2018-04-08T07:25:35.247Z,765.00
2018-04-08T07:26:35.211Z,770.63
2018-04-08T07:27:35.219Z,781.88
2018-04-08T07:28:35.137Z,793.13
2018-04-08T07:29:35.097Z,810.00
2018-04-08T07:30:35.359Z,849.38
2018-04-08T07:31:35.023Z,855.00
2018-04-08T07:32:34.992Z,860.63
2018-04-08T07:33:34.955Z,888.75
2018-04-08T07:34:34.911Z,900.00
2018-04-08T07:35:34.914Z,928.13
2018-04-08T07:36:34.826Z,990.00
2018-04-08T07:37:35.093Z,1102.50
2018-04-08T07:38:34.756Z,1147.50
2018-04-08T07:39:34.721Z,1085.63
2018-04-08T07:40:34.681Z,1040.63
2018-04-08T07:41:34.643Z,1035.00
2018-04-08T07:42:34.618Z,1141.88
2018-04-08T07:43:34.583Z,1113.75
2018-04-08T07:44:34.844Z,1108.13
2018-04-08T07:45:34.512Z,1136.25
2018-04-08T07:46:34.477Z,1130.63
2018-04-08T07:47:34.490Z,1125.00
2018-04-08T07:48:34.406Z,1130.63
2018-04-08T07:49:34.668Z,1164.38
2018-04-08T07:50:34.331Z,1175.63
2018-04-08T07:51:34.582Z,1158.75
2018-04-08T07:52:34.545Z,1119.38
2018-04-08T07:53:34.213Z,1130.63
2018-04-08T07:54:34.436Z,1186.88
2018-04-08T07:55:34.140Z,1237.50
2018-04-08T07:56:34.109Z,1383.75
2018-04-08T07:57:34.122Z,1440.00
2018-04-08T07:58:34.334Z,1546.88
2018-04-08T07:59:33.999Z,2238.75
2018-04-08T08:00:34.212Z,1445.63
2018-04-08T08:01:33.936Z,2126.25
2018-04-08T08:02:33.892Z,2041.88
2018-04-08T08:03:33.860Z,1710.00
2018-04-08T08:04:33.874Z,2053.13
2018-04-08T08:05:34.096Z,2272.50
2018-04-08T08:06:33.755Z,1575.00
2018-04-08T08:07:33.739Z,1800.00
2018-04-08T08:08:33.701Z,2030.63
2018-04-08T08:09:33.666Z,2013.75
2018-04-08T08:10:33.716Z,1698.75
2018-04-08T08:11:33.602Z,2390.63
2018-04-08T08:12:33.870Z,1620.00
2018-04-08T08:13:33.539Z,1760.63
2018-04-08T08:14:33.507Z,1867.50
2018-04-08T08:15:33.470Z,1558.13
2018-04-08T08:16:33.434Z,1631.25
2018-04-08T08:17:33.402Z,1873.13
2018-04-08T08:18:33.725Z,3138.75
2018-04-08T08:19:33.398Z,2970.00
2018-04-08T08:20:33.358Z,2216.25
2018-04-08T08:21:33.280Z,1603.13
2018-04-08T08:22:33.295Z,1580.63
2018-04-08T08:23:33.275Z,1524.38
2018-04-08T08:24:33.495Z,1575.00
2018-04-08T08:25:33.364Z,1586.25
2018-04-08T08:26:33.136Z,1591.88
2018-04-08T08:27:33.157Z,1496.25
2018-04-08T08:28:33.273Z,1417.50
2018-04-08T08:29:33.042Z,1406.25
2018-04-08T08:30:33.361Z,1361.25
2018-04-08T08:31:32.984Z,1350.00
2018-04-08T08:32:32.953Z,1423.13
2018-04-08T08:33:32.968Z,1440.00
2018-04-08T08:34:33.153Z,1428.75
2018-04-08T08:35:32.923Z,1428.75
2018-04-08T08:36:33.129Z,1440.00
2018-04-08T08:37:32.847Z,1456.88
2018-04-08T08:38:32.975Z,1687.50
2018-04-08T08:39:32.730Z,2210.63
2018-04-08T08:40:32.746Z,1659.38
2018-04-08T08:41:32.665Z,1653.75
2018-04-08T08:42:32.990Z,1580.63
2018-04-08T08:43:32.884Z,1535.63
2018-04-08T08:44:32.936Z,1524.38
2018-04-08T08:45:32.540Z,1546.88
2018-04-08T08:46:32.509Z,1552.50
2018-04-08T08:47:32.492Z,1558.13
2018-04-08T08:48:32.807Z,1681.88
2018-04-08T08:49:32.426Z,1991.25
2018-04-08T08:50:32.446Z,1873.13
2018-04-08T08:51:32.367Z,1541.25
2018-04-08T08:52:32.392Z,1445.63
2018-04-08T08:53:32.353Z,1501.88
2018-04-08T08:54:32.278Z,1395.00
2018-04-08T08:55:32.640Z,1417.50
2018-04-08T08:56:32.203Z,1530.00
2018-04-08T08:57:32.498Z,1513.13
2018-04-08T08:58:32.192Z,1479.38
2018-04-08T08:59:32.161Z,1468.13
2018-04-08T09:00:32.129Z,1462.50
2018-04-08T09:01:32.051Z,1451.25
2018-04-08T09:02:32.319Z,1445.63
2018-04-08T09:03:32.037Z,1456.88
2018-04-08T09:04:31.959Z,1462.50
2018-04-08T09:05:32.173Z,1479.38
2018-04-08T09:06:31.963Z,1535.63
2018-04-08T09:07:32.062Z,1693.13
2018-04-08T09:08:32.106Z,1710.00
2018-04-08T09:09:32.100Z,1558.13
2018-04-08T09:10:32.222Z,1552.50
2018-04-08T09:11:31.797Z,1580.63
2018-04-08T09:12:32.082Z,1631.25
2018-04-08T09:13:31.888Z,1721.25
2018-04-08T09:14:32.133Z,1721.25
2018-04-08T09:15:31.680Z,1653.75
2018-04-08T09:16:31.845Z,1614.38
2018-04-08T09:17:32.032Z,1648.13
2018-04-08T09:18:31.588Z,1642.50
2018-04-08T09:19:32.718Z,1648.13
2018-04-08T09:20:31.832Z,1659.38
2018-04-08T09:21:31.483Z,1704.38
2018-04-08T09:22:32.136Z,1732.50
2018-04-08T09:23:31.423Z,1743.75
2018-04-08T09:24:31.345Z,1822.50
2018-04-08T09:25:31.510Z,1828.13
2018-04-08T09:26:31.345Z,1760.63
2018-04-08T09:27:31.264Z,1800.00
2018-04-08T09:28:31.284Z,1822.50
2018-04-08T09:29:31.517Z,2019.38
2018-04-08T09:30:31.520Z,1828.13
2018-04-08T09:31:31.430Z,1760.63
2018-04-08T09:32:31.113Z,1884.38
2018-04-08T09:33:31.128Z,1783.13
2018-04-08T09:34:31.048Z,1670.63
2018-04-08T09:35:31.520Z,1614.38
2018-04-08T09:36:31.396Z,1591.88
2018-04-08T09:37:30.957Z,1546.88
2018-04-08T09:38:30.980Z,1513.13
2018-04-08T09:39:30.975Z,1468.13
2018-04-08T09:40:31.210Z,1428.75
2018-04-08T09:41:31.184Z,1411.88
2018-04-08T09:42:30.804Z,1378.13
2018-04-08T09:43:30.819Z,1366.88
2018-04-08T09:44:30.742Z,1344.38
2018-04-08T09:45:30.751Z,1338.75
2018-04-08T09:46:30.728Z,1299.38
2018-04-08T09:47:30.953Z,1265.63
2018-04-08T09:48:30.665Z,1226.25
2018-04-08T09:49:30.578Z,1181.25
2018-04-08T09:50:30.602Z,1141.88
2018-04-08T09:51:31.348Z,1113.75
2018-04-08T09:52:30.494Z,1096.88
2018-04-08T09:53:31.013Z,1080.00
2018-04-08T09:54:30.435Z,1074.38
2018-04-08T09:55:30.669Z,1074.38
2018-04-08T09:56:30.419Z,1080.00
2018-04-08T09:57:30.344Z,1085.63
2018-04-08T09:58:30.547Z,1091.25
2018-04-08T09:59:30.756Z,1096.88
2018-04-08T10:00:30.399Z,1108.13
2018-04-08T10:01:32.059Z,1113.75
2018-04-08T10:02:30.764Z,1136.25
2018-04-08T10:03:30.864Z,1141.88
2018-04-08T10:04:31.417Z,1158.75
2018-04-08T10:05:30.504Z,1170.00
2018-04-08T10:06:30.352Z,1181.25
2018-04-08T10:07:30.392Z,1181.25
2018-04-08T10:08:30.233Z,1186.88
2018-04-08T10:09:30.172Z,1192.50
2018-04-08T10:10:30.217Z,1186.88
2018-04-08T10:11:30.071Z,1192.50
2018-04-08T10:12:30.291Z,1198.13
2018-04-08T10:13:30.005Z,1203.75
2018-04-08T10:14:30.184Z,1215.00
2018-04-08T10:15:29.924Z,1237.50
2018-04-08T10:16:29.871Z,1248.75
2018-04-08T10:17:29.773Z,1282.50
2018-04-08T10:18:29.860Z,1338.75
2018-04-08T10:19:29.989Z,1383.75
2018-04-08T10:20:29.607Z,1451.25
2018-04-08T10:21:29.775Z,1530.00
2018-04-08T10:22:29.592Z,1648.13
2018-04-08T10:23:29.882Z,1710.00
2018-04-08T10:24:29.870Z,1777.50
2018-04-08T10:25:29.597Z,1873.13
2018-04-08T10:26:29.756Z,1968.75
2018-04-08T10:27:29.571Z,2058.75
2018-04-08T10:28:29.346Z,2182.50
2018-04-08T10:29:29.626Z,2210.63
2018-04-08T10:30:29.287Z,2120.63
2018-04-08T10:31:29.315Z,2182.50
2018-04-08T10:32:29.284Z,2193.75
2018-04-08T10:33:29.502Z,2013.75
